sensor_id;sensor_type;location;lat;lon;timestamp;temperature;humidity
7648;DHT22;3866;48.020;11.720;2024-03-02T00:01:56;4.30;99.90
7648;DHT22;3866;48.020;11.720;2024-03-02T00:04:24;4.20;99.90
7648;DHT22;3866;48.020;11.720;2024-03-02T00:06:52;4.20;99.90
7648;DHT22;3866;48.020;11.720;2024-03-02T00:09:21;4.10;99.90
7648;DHT22;3866;48.020;11.720;2024-03-02T00:11:48;4.10;99.90
7648;DHT22;3866;48.020;11.720;2024-03-02T00:14:18;4.10;99.90
7648;DHT22;3866;48.020;11.720;2024-03-02T00:16:47;4.10;99.90
7648;DHT22;3866;48.020;11.720;2024-03-02T00:19:19;4.10;99.90
7648;DHT22;3866;48.020;11.720;2024-03-02T00:21:50;4.10;99.90
7648;DHT22;3866;48.020;11.720;2024-03-02T00:24:24;4.10;99.90
7648;DHT22;3866;48.020;11.720;2024-03-02T00:26:58;4.10;99.90
7648;DHT22;3866;48.020;11.720;2024-03-02T00:29:29;4.10;99.90
7648;DHT22;3866;48.020;11.720;2024-03-02T00:31:57;4.20;99.90
7648;DHT22;3866;48.020;11.720;2024-03-02T00:34:27;4.10;99.90
7648;DHT22;3866;48.020;11.720;2024-03-02T00:36:58;4.20;99.90
7648;DHT22;3866;48.020;11.720;2024-03-02T00:39:27;4.20;99.90
7648;DHT22;3866;48.020;11.720;2024-03-02T00:41:55;4.40;99.90
7648;DHT22;3866;48.020;11.720;2024-03-02T00:44:25;4.30;99.90
7648;DHT22;3866;48.020;11.720;2024-03-02T00:46:56;4.40;99.90
7648;DHT22;3866;48.020;11.720;2024-03-02T00:49:27;4.30;99.90
7648;DHT22;3866;48.020;11.720;2024-03-02T00:51:56;4.40;99.90
7648;DHT22;3866;48.020;11.720;2024-03-02T00:54:26;4.30;99.90
7648;DHT22;3866;48.020;11.720;2024-03-02T00:56:55;4.40;99.90
7648;DHT22;3866;48.020;11.720;2024-03-02T00:59:24;4.40;99.90
7648;DHT22;3866;48.020;11.720;2024-03-02T01:01:53;4.60;99.90
7648;DHT22;3866;48.020;11.720;2024-03-02T01:04:21;4.70;99.90
7648;DHT22;3866;48.020;11.720;2024-03-02T01:06:58;4.70;99.90
7648;DHT22;3866;48.020;11.720;2024-03-02T01:09:26;4.70;99.90
7648;DHT22;3866;48.020;11.720;2024-03-02T01:11:54;4.70;99.90
7648;DHT22;3866;48.020;11.720;2024-03-02T01:14:25;4.70;99.90
7648;DHT22;3866;48.020;11.720;2024-03-02T01:16:53;4.60;99.90
7648;DHT22;3866;48.020;11.720;2024-03-02T01:19:21;4.60;99.90
7648;DHT22;3866;48.020;11.720;2024-03-02T01:21:49;4.60;99.90
7648;DHT22;3866;48.020;11.720;2024-03-02T01:24:19;4.50;99.90
7648;DHT22;3866;48.020;11.720;2024-03-02T01:26:47;4.50;99.90
7648;DHT22;3866;48.020;11.720;2024-03-02T01:29:18;4.40;99.90
7648;DHT22;3866;48.020;11.720;2024-03-02T01:31:46;4.50;99.90
7648;DHT22;3866;48.020;11.720;2024-03-02T01:34:14;4.50;99.90
7648;DHT22;3866;48.020;11.720;2024-03-02T01:36:43;4.40;99.90
7648;DHT22;3866;48.020;11.720;2024-03-02T01:39:10;4.60;99.90
7648;DHT22;3866;48.020;11.720;2024-03-02T01:41:39;4.70;99.90
7648;DHT22;3866;48.020;11.720;2024-03-02T01:44:07;4.70;99.90
7648;DHT22;3866;48.020;11.720;2024-03-02T01:46:36;4.60;99.90
7648;DHT22;3866;48.020;11.720;2024-03-02T01:49:04;4.60;99.90
7648;DHT22;3866;48.020;11.720;2024-03-02T01:51:32;4.60;99.90
7648;DHT22;3866;48.020;11.720;2024-03-02T01:54:00;4.60;99.90
7648;DHT22;3866;48.020;11.720;2024-03-02T01:56:29;4.60;99.90
7648;DHT22;3866;48.020;11.720;2024-03-02T01:58:59;4.60;99.90
7648;DHT22;3866;48.020;11.720;2024-03-02T02:01:29;4.60;99.90
7648;DHT22;3866;48.020;11.720;2024-03-02T02:03:58;4.60;99.90
7648;DHT22;3866;48.020;11.720;2024-03-02T02:06:29;4.60;99.90
7648;DHT22;3866;48.020;11.720;2024-03-02T02:08:57;4.80;99.90
7648;DHT22;3866;48.020;11.720;2024-03-02T02:11:25;4.80;99.90
7648;DHT22;3866;48.020;11.720;2024-03-02T02:13:53;4.70;99.90
7648;DHT22;3866;48.020;11.720;2024-03-02T02:16:22;4.70;99.90
7648;DHT22;3866;48.020;11.720;2024-03-02T02:18:51;4.70;99.90
7648;DHT22;3866;48.020;11.720;2024-03-02T02:21:24;4.90;99.90
7648;DHT22;3866;48.020;11.720;2024-03-02T02:23:52;5.10;99.90
7648;DHT22;3866;48.020;11.720;2024-03-02T02:26:21;5.10;99.90
7648;DHT22;3866;48.020;11.720;2024-03-02T02:28:49;5.10;99.90
7648;DHT22;3866;48.020;11.720;2024-03-02T02:31:17;4.90;99.90
7648;DHT22;3866;48.020;11.720;2024-03-02T02:33:44;4.90;99.90
7648;DHT22;3866;48.020;11.720;2024-03-02T02:36:12;4.90;99.90
7648;DHT22;3866;48.020;11.720;2024-03-02T02:38:46;4.80;99.90
7648;DHT22;3866;48.020;11.720;2024-03-02T02:41:16;4.90;99.90
7648;DHT22;3866;48.020;11.720;2024-03-02T02:43:44;5.10;99.90
7648;DHT22;3866;48.020;11.720;2024-03-02T02:46:12;5.10;99.90
7648;DHT22;3866;48.020;11.720;2024-03-02T02:48:40;5.00;99.90
7648;DHT22;3866;48.020;11.720;2024-03-02T02:51:08;5.00;99.90
7648;DHT22;3866;48.020;11.720;2024-03-02T02:53:36;5.00;99.90
7648;DHT22;3866;48.020;11.720;2024-03-02T02:56:08;5.00;99.90
7648;DHT22;3866;48.020;11.720;2024-03-02T02:58:36;4.90;99.90
7648;DHT22;3866;48.020;11.720;2024-03-02T03:01:04;4.90;99.90
7648;DHT22;3866;48.020;11.720;2024-03-02T03:03:32;4.90;99.90
7648;DHT22;3866;48.020;11.720;2024-03-02T03:06:00;5.00;99.90
7648;DHT22;3866;48.020;11.720;2024-03-02T03:08:29;5.10;99.90
7648;DHT22;3866;48.020;11.720;2024-03-02T03:10:57;5.20;99.90
7648;DHT22;3866;48.020;11.720;2024-03-02T03:13:36;5.10;99.90
7648;DHT22;3866;48.020;11.720;2024-03-02T03:16:05;5.00;99.90
7648;DHT22;3866;48.020;11.720;2024-03-02T03:18:33;5.10;99.90
7648;DHT22;3866;48.020;11.720;2024-03-02T03:21:02;4.90;99.90
7648;DHT22;3866;48.020;11.720;2024-03-02T03:23:30;4.90;99.90
7648;DHT22;3866;48.020;11.720;2024-03-02T03:25:58;4.80;99.90
7648;DHT22;3866;48.020;11.720;2024-03-02T03:28:29;4.90;99.90
7648;DHT22;3866;48.020;11.720;2024-03-02T03:30:57;4.90;99.90
7648;DHT22;3866;48.020;11.720;2024-03-02T03:33:25;4.90;99.90
7648;DHT22;3866;48.020;11.720;2024-03-02T03:35:52;4.90;99.90
7648;DHT22;3866;48.020;11.720;2024-03-02T03:38:20;4.90;99.90
7648;DHT22;3866;48.020;11.720;2024-03-02T03:40:48;4.90;99.90
7648;DHT22;3866;48.020;11.720;2024-03-02T03:43:16;4.90;99.90
7648;DHT22;3866;48.020;11.720;2024-03-02T03:45:46;4.90;99.90
7648;DHT22;3866;48.020;11.720;2024-03-02T03:48:14;4.90;99.90
7648;DHT22;3866;48.020;11.720;2024-03-02T03:50:42;4.80;99.90
7648;DHT22;3866;48.020;11.720;2024-03-02T03:53:13;4.80;99.90
7648;DHT22;3866;48.020;11.720;2024-03-02T03:55:41;4.70;99.90
7648;DHT22;3866;48.020;11.720;2024-03-02T03:58:09;4.70;99.90
7648;DHT22;3866;48.020;11.720;2024-03-02T04:00:37;4.70;99.90
7648;DHT22;3866;48.020;11.720;2024-03-02T04:03:10;4.70;99.90
7648;DHT22;3866;48.020;11.720;2024-03-02T04:05:42;4.70;99.90
7648;DHT22;3866;48.020;11.720;2024-03-02T04:08:10;4.70;99.90
7648;DHT22;3866;48.020;11.720;2024-03-02T04:10:38;4.70;99.90
7648;DHT22;3866;48.020;11.720;2024-03-02T04:13:07;4.70;99.90
7648;DHT22;3866;48.020;11.720;2024-03-02T04:15:35;4.70;99.90
7648;DHT22;3866;48.020;11.720;2024-03-02T04:18:04;4.70;99.90
7648;DHT22;3866;48.020;11.720;2024-03-02T04:20:33;4.70;99.90
7648;DHT22;3866;48.020;11.720;2024-03-02T04:23:02;4.70;99.90
7648;DHT22;3866;48.020;11.720;2024-03-02T04:25:29;4.70;99.90
7648;DHT22;3866;48.020;11.720;2024-03-02T04:27:58;4.70;99.90
7648;DHT22;3866;48.020;11.720;2024-03-02T04:30:25;4.80;99.90
7648;DHT22;3866;48.020;11.720;2024-03-02T04:32:53;4.70;99.90
7648;DHT22;3866;48.020;11.720;2024-03-02T04:35:21;4.80;99.90
7648;DHT22;3866;48.020;11.720;2024-03-02T04:37:51;4.70;99.90
7648;DHT22;3866;48.020;11.720;2024-03-02T04:40:20;4.70;99.90
7648;DHT22;3866;48.020;11.720;2024-03-02T04:42:48;4.70;99.90
7648;DHT22;3866;48.020;11.720;2024-03-02T04:45:15;4.70;99.90
7648;DHT22;3866;48.020;11.720;2024-03-02T04:47:43;4.70;99.90
7648;DHT22;3866;48.020;11.720;2024-03-02T04:50:11;4.70;99.90
7648;DHT22;3866;48.020;11.720;2024-03-02T04:52:39;4.60;99.90
7648;DHT22;3866;48.020;11.720;2024-03-02T04:55:09;4.70;99.90
7648;DHT22;3866;48.020;11.720;2024-03-02T04:57:43;4.60;99.90
7648;DHT22;3866;48.020;11.720;2024-03-02T05:00:12;4.60;99.90
7648;DHT22;3866;48.020;11.720;2024-03-02T05:02:40;4.50;99.90
7648;DHT22;3866;48.020;11.720;2024-03-02T05:05:08;4.50;99.90
7648;DHT22;3866;48.020;11.720;2024-03-02T05:07:36;4.50;99.90
7648;DHT22;3866;48.020;11.720;2024-03-02T05:10:05;4.60;99.90
7648;DHT22;3866;48.020;11.720;2024-03-02T05:12:35;4.60;99.90
7648;DHT22;3866;48.020;11.720;2024-03-02T05:15:21;4.70;99.90
7648;DHT22;3866;48.020;11.720;2024-03-02T05:17:50;4.70;99.90
7648;DHT22;3866;48.020;11.720;2024-03-02T05:20:18;4.60;99.90
7648;DHT22;3866;48.020;11.720;2024-03-02T05:22:49;4.60;99.90
7648;DHT22;3866;48.020;11.720;2024-03-02T05:25:17;4.50;99.90
7648;DHT22;3866;48.020;11.720;2024-03-02T05:27:57;4.50;99.90
7648;DHT22;3866;48.020;11.720;2024-03-02T05:30:25;4.50;99.90
7648;DHT22;3866;48.020;11.720;2024-03-02T05:32:53;4.60;99.90
7648;DHT22;3866;48.020;11.720;2024-03-02T05:35:21;4.60;99.90
7648;DHT22;3866;48.020;11.720;2024-03-02T05:37:49;4.60;99.90
7648;DHT22;3866;48.020;11.720;2024-03-02T05:40:18;4.60;99.90
7648;DHT22;3866;48.020;11.720;2024-03-02T05:42:45;4.60;99.90
7648;DHT22;3866;48.020;11.720;2024-03-02T05:45:15;4.60;99.90
7648;DHT22;3866;48.020;11.720;2024-03-02T05:47:43;4.60;99.90
7648;DHT22;3866;48.020;11.720;2024-03-02T05:50:13;4.60;99.90
7648;DHT22;3866;48.020;11.720;2024-03-02T05:52:41;4.60;99.90
7648;DHT22;3866;48.020;11.720;2024-03-02T05:55:09;4.60;99.90
7648;DHT22;3866;48.020;11.720;2024-03-02T05:57:36;4.60;99.90
7648;DHT22;3866;48.020;11.720;2024-03-02T06:00:23;4.60;99.90
7648;DHT22;3866;48.020;11.720;2024-03-02T06:02:51;4.60;99.90
7648;DHT22;3866;48.020;11.720;2024-03-02T06:05:19;4.60;99.90
7648;DHT22;3866;48.020;11.720;2024-03-02T06:07:47;4.60;99.90
7648;DHT22;3866;48.020;11.720;2024-03-02T06:10:15;4.60;99.90
7648;DHT22;3866;48.020;11.720;2024-03-02T06:12:44;4.60;99.90
7648;DHT22;3866;48.020;11.720;2024-03-02T06:15:13;4.60;99.90
7648;DHT22;3866;48.020;11.720;2024-03-02T06:17:41;4.60;99.90
7648;DHT22;3866;48.020;11.720;2024-03-02T06:20:10;4.70;99.90
7648;DHT22;3866;48.020;11.720;2024-03-02T06:22:38;4.70;99.90
7648;DHT22;3866;48.020;11.720;2024-03-02T06:25:07;4.60;99.90
7648;DHT22;3866;48.020;11.720;2024-03-02T06:27:38;4.60;99.90
7648;DHT22;3866;48.020;11.720;2024-03-02T06:30:07;4.60;99.90
7648;DHT22;3866;48.020;11.720;2024-03-02T06:32:35;4.70;99.90
7648;DHT22;3866;48.020;11.720;2024-03-02T06:35:05;4.60;99.90
7648;DHT22;3866;48.020;11.720;2024-03-02T06:37:37;4.60;99.90
7648;DHT22;3866;48.020;11.720;2024-03-02T06:40:07;4.80;99.90
7648;DHT22;3866;48.020;11.720;2024-03-02T06:42:36;4.90;99.90
7648;DHT22;3866;48.020;11.720;2024-03-02T06:45:05;4.80;99.90
7648;DHT22;3866;48.020;11.720;2024-03-02T06:47:33;5.00;99.90
7648;DHT22;3866;48.020;11.720;2024-03-02T06:50:01;5.00;99.90
7648;DHT22;3866;48.020;11.720;2024-03-02T06:52:30;4.90;99.90
7648;DHT22;3866;48.020;11.720;2024-03-02T06:54:57;5.00;99.90
7648;DHT22;3866;48.020;11.720;2024-03-02T06:57:24;5.00;99.90
7648;DHT22;3866;48.020;11.720;2024-03-02T06:59:51;5.00;99.90
7648;DHT22;3866;48.020;11.720;2024-03-02T07:02:20;5.00;99.90
7648;DHT22;3866;48.020;11.720;2024-03-02T07:04:48;5.00;99.90
7648;DHT22;3866;48.020;11.720;2024-03-02T07:07:16;5.00;99.90
7648;DHT22;3866;48.020;11.720;2024-03-02T07:09:45;5.10;99.90
7648;DHT22;3866;48.020;11.720;2024-03-02T07:12:11;5.10;99.90
7648;DHT22;3866;48.020;11.720;2024-03-02T07:14:37;5.10;99.90
7648;DHT22;3866;48.020;11.720;2024-03-02T07:17:36;5.20;99.90
7648;DHT22;3866;48.020;11.720;2024-03-02T07:20:04;5.10;99.90
7648;DHT22;3866;48.020;11.720;2024-03-02T07:22:32;5.10;99.90
7648;DHT22;3866;48.020;11.720;2024-03-02T07:25:00;5.20;99.90
7648;DHT22;3866;48.020;11.720;2024-03-02T07:27:28;5.30;99.90
7648;DHT22;3866;48.020;11.720;2024-03-02T07:29:55;5.40;99.90
7648;DHT22;3866;48.020;11.720;2024-03-02T07:32:21;5.50;99.90
7648;DHT22;3866;48.020;11.720;2024-03-02T07:34:48;5.70;99.90
7648;DHT22;3866;48.020;11.720;2024-03-02T07:37:16;5.80;99.90
7648;DHT22;3866;48.020;11.720;2024-03-02T07:39:44;5.80;99.90
7648;DHT22;3866;48.020;11.720;2024-03-02T07:42:13;5.90;99.90
7648;DHT22;3866;48.020;11.720;2024-03-02T07:44:40;6.00;99.90
7648;DHT22;3866;48.020;11.720;2024-03-02T07:47:06;5.80;99.90
7648;DHT22;3866;48.020;11.720;2024-03-02T07:49:33;5.90;99.90
7648;DHT22;3866;48.020;11.720;2024-03-02T07:52:01;6.00;99.90
7648;DHT22;3866;48.020;11.720;2024-03-02T07:54:28;6.00;99.90
7648;DHT22;3866;48.020;11.720;2024-03-02T07:56:55;6.20;99.90
7648;DHT22;3866;48.020;11.720;2024-03-02T07:59:23;6.30;99.90
7648;DHT22;3866;48.020;11.720;2024-03-02T08:01:50;6.30;99.90
7648;DHT22;3866;48.020;11.720;2024-03-02T08:04:17;6.50;99.90
7648;DHT22;3866;48.020;11.720;2024-03-02T08:06:45;6.50;99.90
7648;DHT22;3866;48.020;11.720;2024-03-02T08:09:12;6.80;99.90
7648;DHT22;3866;48.020;11.720;2024-03-02T08:11:39;7.10;99.90
7648;DHT22;3866;48.020;11.720;2024-03-02T08:14:06;7.50;99.90
7648;DHT22;3866;48.020;11.720;2024-03-02T08:16:34;8.30;99.90
7648;DHT22;3866;48.020;11.720;2024-03-02T08:19:01;9.90;99.90
7648;DHT22;3866;48.020;11.720;2024-03-02T08:21:28;10.20;99.90
7648;DHT22;3866;48.020;11.720;2024-03-02T08:23:57;9.20;99.90
7648;DHT22;3866;48.020;11.720;2024-03-02T08:26:24;9.90;99.90
7648;DHT22;3866;48.020;11.720;2024-03-02T08:28:54;11.80;99.90
7648;DHT22;3866;48.020;11.720;2024-03-02T08:31:21;12.80;99.90
7648;DHT22;3866;48.020;11.720;2024-03-02T08:33:49;12.60;99.90
7648;DHT22;3866;48.020;11.720;2024-03-02T08:36:16;12.10;99.90
7648;DHT22;3866;48.020;11.720;2024-03-02T08:38:43;11.80;99.90
7648;DHT22;3866;48.020;11.720;2024-03-02T08:41:11;11.20;99.90
7648;DHT22;3866;48.020;11.720;2024-03-02T08:43:40;11.80;99.90
7648;DHT22;3866;48.020;11.720;2024-03-02T08:46:08;11.30;99.90
7648;DHT22;3866;48.020;11.720;2024-03-02T08:48:35;12.00;99.90
7648;DHT22;3866;48.020;11.720;2024-03-02T08:51:03;13.30;99.90
7648;DHT22;3866;48.020;11.720;2024-03-02T08:53:33;14.20;99.90
7648;DHT22;3866;48.020;11.720;2024-03-02T08:56:00;14.10;99.90
7648;DHT22;3866;48.020;11.720;2024-03-02T08:58:27;15.00;99.90
7648;DHT22;3866;48.020;11.720;2024-03-02T09:00:55;14.80;99.90
7648;DHT22;3866;48.020;11.720;2024-03-02T09:03:22;14.70;99.90
7648;DHT22;3866;48.020;11.720;2024-03-02T09:05:49;14.50;99.90
7648;DHT22;3866;48.020;11.720;2024-03-02T09:08:19;15.30;99.90
7648;DHT22;3866;48.020;11.720;2024-03-02T09:10:49;16.00;99.90
7648;DHT22;3866;48.020;11.720;2024-03-02T09:13:18;16.80;99.90
7648;DHT22;3866;48.020;11.720;2024-03-02T09:15:48;16.20;99.90
7648;DHT22;3866;48.020;11.720;2024-03-02T09:18:17;15.50;99.90
7648;DHT22;3866;48.020;11.720;2024-03-02T09:20:47;14.90;99.90
7648;DHT22;3866;48.020;11.720;2024-03-02T09:23:15;14.70;99.90
7648;DHT22;3866;48.020;11.720;2024-03-02T09:25:47;14.60;99.90
7648;DHT22;3866;48.020;11.720;2024-03-02T09:28:15;14.30;99.90
7648;DHT22;3866;48.020;11.720;2024-03-02T09:30:43;13.00;99.90
7648;DHT22;3866;48.020;11.720;2024-03-02T09:33:10;12.80;99.90
7648;DHT22;3866;48.020;11.720;2024-03-02T09:35:36;12.90;99.90
7648;DHT22;3866;48.020;11.720;2024-03-02T09:38:04;12.70;99.90
7648;DHT22;3866;48.020;11.720;2024-03-02T09:40:33;12.70;99.90
7648;DHT22;3866;48.020;11.720;2024-03-02T09:43:07;12.90;99.90
7648;DHT22;3866;48.020;11.720;2024-03-02T09:45:35;13.50;99.90
7648;DHT22;3866;48.020;11.720;2024-03-02T09:48:04;13.30;99.90
7648;DHT22;3866;48.020;11.720;2024-03-02T09:50:34;13.70;99.90
7648;DHT22;3866;48.020;11.720;2024-03-02T09:53:03;13.80;99.90
7648;DHT22;3866;48.020;11.720;2024-03-02T09:55:32;13.80;99.90
7648;DHT22;3866;48.020;11.720;2024-03-02T09:57:59;13.40;99.90
7648;DHT22;3866;48.020;11.720;2024-03-02T10:00:27;13.30;99.90
7648;DHT22;3866;48.020;11.720;2024-03-02T10:02:54;13.70;99.90
7648;DHT22;3866;48.020;11.720;2024-03-02T10:05:24;14.00;99.90
7648;DHT22;3866;48.020;11.720;2024-03-02T10:07:58;13.50;99.90
7648;DHT22;3866;48.020;11.720;2024-03-02T10:10:34;13.70;99.90
7648;DHT22;3866;48.020;11.720;2024-03-02T10:13:06;14.10;99.90
7648;DHT22;3866;48.020;11.720;2024-03-02T10:15:36;14.20;99.90
7648;DHT22;3866;48.020;11.720;2024-03-02T10:18:04;13.30;99.90
7648;DHT22;3866;48.020;11.720;2024-03-02T10:20:31;13.50;99.90
7648;DHT22;3866;48.020;11.720;2024-03-02T10:23:10;13.60;99.90
7648;DHT22;3866;48.020;11.720;2024-03-02T10:25:37;13.30;99.90
7648;DHT22;3866;48.020;11.720;2024-03-02T10:28:04;13.50;99.90
7648;DHT22;3866;48.020;11.720;2024-03-02T10:30:32;14.00;99.90
7648;DHT22;3866;48.020;11.720;2024-03-02T10:33:02;14.20;99.90
7648;DHT22;3866;48.020;11.720;2024-03-02T10:35:31;14.20;99.90
7648;DHT22;3866;48.020;11.720;2024-03-02T10:38:04;14.00;99.90
7648;DHT22;3866;48.020;11.720;2024-03-02T10:40:33;14.70;99.90
7648;DHT22;3866;48.020;11.720;2024-03-02T10:43:02;14.80;99.90
7648;DHT22;3866;48.020;11.720;2024-03-02T10:45:32;14.90;99.90
7648;DHT22;3866;48.020;11.720;2024-03-02T10:48:03;14.60;99.90
7648;DHT22;3866;48.020;11.720;2024-03-02T10:50:32;15.60;99.90
7648;DHT22;3866;48.020;11.720;2024-03-02T10:53:00;15.10;99.90
7648;DHT22;3866;48.020;11.720;2024-03-02T10:55:28;15.10;99.90
7648;DHT22;3866;48.020;11.720;2024-03-02T10:58:00;14.70;99.90
7648;DHT22;3866;48.020;11.720;2024-03-02T11:00:34;14.80;99.90
7648;DHT22;3866;48.020;11.720;2024-03-02T11:03:12;14.40;99.90
7648;DHT22;3866;48.020;11.720;2024-03-02T11:05:44;14.20;99.90
7648;DHT22;3866;48.020;11.720;2024-03-02T11:08:13;14.70;99.90
7648;DHT22;3866;48.020;11.720;2024-03-02T11:10:45;15.30;99.90
7648;DHT22;3866;48.020;11.720;2024-03-02T11:13:20;15.30;99.90
7648;DHT22;3866;48.020;11.720;2024-03-02T11:15:53;15.10;99.90
7648;DHT22;3866;48.020;11.720;2024-03-02T11:18:24;15.30;99.90
7648;DHT22;3866;48.020;11.720;2024-03-02T11:20:52;15.00;99.90
7648;DHT22;3866;48.020;11.720;2024-03-02T11:23:32;14.60;99.90
7648;DHT22;3866;48.020;11.720;2024-03-02T11:26:16;14.20;99.90
7648;DHT22;3866;48.020;11.720;2024-03-02T11:28:43;13.70;99.90
7648;DHT22;3866;48.020;11.720;2024-03-02T11:31:10;13.30;99.90
7648;DHT22;3866;48.020;11.720;2024-03-02T11:33:39;13.10;99.90
7648;DHT22;3866;48.020;11.720;2024-03-02T11:36:07;12.90;99.90
7648;DHT22;3866;48.020;11.720;2024-03-02T11:38:35;12.90;99.90
7648;DHT22;3866;48.020;11.720;2024-03-02T11:41:03;13.10;99.90
7648;DHT22;3866;48.020;11.720;2024-03-02T11:43:32;13.50;99.90
7648;DHT22;3866;48.020;11.720;2024-03-02T11:46:00;14.10;99.90
7648;DHT22;3866;48.020;11.720;2024-03-02T11:48:30;14.40;99.90
7648;DHT22;3866;48.020;11.720;2024-03-02T11:51:00;14.60;99.90
7648;DHT22;3866;48.020;11.720;2024-03-02T11:53:27;14.90;99.90
7648;DHT22;3866;48.020;11.720;2024-03-02T11:55:55;14.90;99.90
7648;DHT22;3866;48.020;11.720;2024-03-02T11:58:22;14.40;99.90
7648;DHT22;3866;48.020;11.720;2024-03-02T12:00:52;14.30;99.90
7648;DHT22;3866;48.020;11.720;2024-03-02T12:03:21;14.70;99.90
7648;DHT22;3866;48.020;11.720;2024-03-02T12:05:49;14.90;99.90
7648;DHT22;3866;48.020;11.720;2024-03-02T12:08:18;15.10;99.90
7648;DHT22;3866;48.020;11.720;2024-03-02T12:10:56;15.00;99.90
7648;DHT22;3866;48.020;11.720;2024-03-02T12:13:23;15.10;99.90
7648;DHT22;3866;48.020;11.720;2024-03-02T12:15:53;15.00;99.90
7648;DHT22;3866;48.020;11.720;2024-03-02T12:18:21;14.60;99.90
7648;DHT22;3866;48.020;11.720;2024-03-02T12:20:49;14.60;99.90
7648;DHT22;3866;48.020;11.720;2024-03-02T12:23:20;14.30;99.90
7648;DHT22;3866;48.020;11.720;2024-03-02T12:25:49;14.50;99.90
7648;DHT22;3866;48.020;11.720;2024-03-02T12:28:17;14.80;99.90
7648;DHT22;3866;48.020;11.720;2024-03-02T12:30:47;15.20;99.90
7648;DHT22;3866;48.020;11.720;2024-03-02T12:33:16;15.00;99.90
7648;DHT22;3866;48.020;11.720;2024-03-02T12:35:44;14.60;99.90
7648;DHT22;3866;48.020;11.720;2024-03-02T12:38:14;14.40;99.90
7648;DHT22;3866;48.020;11.720;2024-03-02T12:40:44;14.00;99.90
7648;DHT22;3866;48.020;11.720;2024-03-02T12:43:13;14.30;99.90
7648;DHT22;3866;48.020;11.720;2024-03-02T12:45:40;14.10;99.90
7648;DHT22;3866;48.020;11.720;2024-03-02T12:48:09;14.00;99.90
7648;DHT22;3866;48.020;11.720;2024-03-02T12:50:36;14.00;99.90
7648;DHT22;3866;48.020;11.720;2024-03-02T12:53:04;13.90;99.90
7648;DHT22;3866;48.020;11.720;2024-03-02T12:55:32;13.80;99.90
7648;DHT22;3866;48.020;11.720;2024-03-02T12:58:02;14.00;99.90
7648;DHT22;3866;48.020;11.720;2024-03-02T13:00:30;14.00;99.90
7648;DHT22;3866;48.020;11.720;2024-03-02T13:03:02;14.20;99.90
7648;DHT22;3866;48.020;11.720;2024-03-02T13:05:30;14.40;99.90
7648;DHT22;3866;48.020;11.720;2024-03-02T13:07:59;14.20;99.90
7648;DHT22;3866;48.020;11.720;2024-03-02T13:10:30;14.10;99.90
7648;DHT22;3866;48.020;11.720;2024-03-02T13:12:59;14.10;99.90
7648;DHT22;3866;48.020;11.720;2024-03-02T13:15:29;13.80;99.90
7648;DHT22;3866;48.020;11.720;2024-03-02T13:18:00;13.70;99.90
7648;DHT22;3866;48.020;11.720;2024-03-02T13:20:32;13.80;99.90
7648;DHT22;3866;48.020;11.720;2024-03-02T13:23:01;14.00;99.90
7648;DHT22;3866;48.020;11.720;2024-03-02T13:25:28;14.40;99.90
7648;DHT22;3866;48.020;11.720;2024-03-02T13:27:58;14.70;99.90
7648;DHT22;3866;48.020;11.720;2024-03-02T13:30:28;14.70;99.90
7648;DHT22;3866;48.020;11.720;2024-03-02T13:32:57;15.20;99.90
7648;DHT22;3866;48.020;11.720;2024-03-02T13:35:25;15.00;99.90
7648;DHT22;3866;48.020;11.720;2024-03-02T13:37:53;14.90;99.90
7648;DHT22;3866;48.020;11.720;2024-03-02T13:40:21;14.70;99.90
7648;DHT22;3866;48.020;11.720;2024-03-02T13:42:50;14.90;99.90
7648;DHT22;3866;48.020;11.720;2024-03-02T13:45:20;14.90;99.90
7648;DHT22;3866;48.020;11.720;2024-03-02T13:47:54;14.50;99.90
7648;DHT22;3866;48.020;11.720;2024-03-02T13:50:21;14.90;99.90
7648;DHT22;3866;48.020;11.720;2024-03-02T13:52:50;15.10;99.90
7648;DHT22;3866;48.020;11.720;2024-03-02T13:55:18;15.50;99.90
7648;DHT22;3866;48.020;11.720;2024-03-02T13:57:47;15.50;99.90
7648;DHT22;3866;48.020;11.720;2024-03-02T14:00:17;15.80;99.90
7648;DHT22;3866;48.020;11.720;2024-03-02T14:02:45;15.30;99.90
7648;DHT22;3866;48.020;11.720;2024-03-02T14:05:15;15.70;99.90
7648;DHT22;3866;48.020;11.720;2024-03-02T14:07:43;15.90;99.90
7648;DHT22;3866;48.020;11.720;2024-03-02T14:10:11;16.10;99.90
7648;DHT22;3866;48.020;11.720;2024-03-02T14:12:42;16.00;99.90
7648;DHT22;3866;48.020;11.720;2024-03-02T14:15:10;15.90;99.90
7648;DHT22;3866;48.020;11.720;2024-03-02T14:17:38;15.60;99.90
7648;DHT22;3866;48.020;11.720;2024-03-02T14:20:07;15.40;99.90
7648;DHT22;3866;48.020;11.720;2024-03-02T14:22:38;16.20;99.90
7648;DHT22;3866;48.020;11.720;2024-03-02T14:25:09;16.00;99.90
7648;DHT22;3866;48.020;11.720;2024-03-02T14:27:37;15.70;99.90
7648;DHT22;3866;48.020;11.720;2024-03-02T14:30:07;15.40;99.90
7648;DHT22;3866;48.020;11.720;2024-03-02T14:32:34;14.70;99.90
7648;DHT22;3866;48.020;11.720;2024-03-02T14:35:03;14.60;99.90
7648;DHT22;3866;48.020;11.720;2024-03-02T14:37:31;15.10;99.90
7648;DHT22;3866;48.020;11.720;2024-03-02T14:40:01;15.20;99.90
7648;DHT22;3866;48.020;11.720;2024-03-02T14:42:28;15.40;99.90
7648;DHT22;3866;48.020;11.720;2024-03-02T14:44:57;15.80;99.90
7648;DHT22;3866;48.020;11.720;2024-03-02T14:47:25;15.50;99.90
7648;DHT22;3866;48.020;11.720;2024-03-02T14:49:53;14.90;99.90
7648;DHT22;3866;48.020;11.720;2024-03-02T14:52:21;14.80;99.90
7648;DHT22;3866;48.020;11.720;2024-03-02T14:54:50;15.10;99.90
7648;DHT22;3866;48.020;11.720;2024-03-02T14:57:19;14.90;99.90
7648;DHT22;3866;48.020;11.720;2024-03-02T14:59:48;14.70;99.90
7648;DHT22;3866;48.020;11.720;2024-03-02T15:02:15;14.70;99.90
7648;DHT22;3866;48.020;11.720;2024-03-02T15:04:44;14.40;99.90
7648;DHT22;3866;48.020;11.720;2024-03-02T15:07:14;14.50;99.90
7648;DHT22;3866;48.020;11.720;2024-03-02T15:09:42;14.50;99.90
7648;DHT22;3866;48.020;11.720;2024-03-02T15:12:11;14.40;99.90
7648;DHT22;3866;48.020;11.720;2024-03-02T15:14:42;13.80;99.90
7648;DHT22;3866;48.020;11.720;2024-03-02T15:17:15;13.90;99.90
7648;DHT22;3866;48.020;11.720;2024-03-02T15:19:43;14.00;99.90
7648;DHT22;3866;48.020;11.720;2024-03-02T15:22:12;13.90;99.90
7648;DHT22;3866;48.020;11.720;2024-03-02T15:24:40;13.60;99.90
7648;DHT22;3866;48.020;11.720;2024-03-02T15:27:08;13.80;99.90
7648;DHT22;3866;48.020;11.720;2024-03-02T15:29:37;13.50;99.90
7648;DHT22;3866;48.020;11.720;2024-03-02T15:32:06;13.40;99.90
7648;DHT22;3866;48.020;11.720;2024-03-02T15:34:34;13.50;99.90
7648;DHT22;3866;48.020;11.720;2024-03-02T15:37:02;13.50;99.90
7648;DHT22;3866;48.020;11.720;2024-03-02T15:39:30;13.60;99.90
7648;DHT22;3866;48.020;11.720;2024-03-02T15:41:59;13.80;99.90
7648;DHT22;3866;48.020;11.720;2024-03-02T15:44:28;14.00;99.90
7648;DHT22;3866;48.020;11.720;2024-03-02T15:46:56;14.10;99.90
7648;DHT22;3866;48.020;11.720;2024-03-02T15:49:25;14.10;99.90
7648;DHT22;3866;48.020;11.720;2024-03-02T15:51:54;13.90;99.90
7648;DHT22;3866;48.020;11.720;2024-03-02T15:54:23;13.90;99.90
7648;DHT22;3866;48.020;11.720;2024-03-02T15:56:50;14.00;99.90
7648;DHT22;3866;48.020;11.720;2024-03-02T15:59:16;13.60;99.90
7648;DHT22;3866;48.020;11.720;2024-03-02T16:01:43;13.30;99.90
7648;DHT22;3866;48.020;11.720;2024-03-02T16:04:12;13.00;99.90
7648;DHT22;3866;48.020;11.720;2024-03-02T16:06:41;13.00;99.90